createdAt,value
2022-12-29T00:01:19.534Z,1.60
2022-12-29T00:03:48.518Z,1.50
2022-12-29T00:06:16.837Z,1.30
2022-12-29T00:08:45.053Z,1.50
2022-12-29T00:11:15.311Z,1.50
2022-12-29T00:14:03.134Z,1.77
2022-12-29T00:16:34.071Z,1.70
2022-12-29T00:19:02.767Z,1.43
2022-12-29T00:21:48.862Z,1.60
2022-12-29T00:24:39.901Z,1.67
2022-12-29T00:27:32.443Z,1.20
2022-12-29T00:30:20.428Z,1.40
2022-12-29T00:33:05.973Z,1.43
2022-12-29T00:35:38.274Z,1.50
2022-12-29T00:38:27.301Z,1.30
2022-12-29T00:41:12.814Z,1.90
2022-12-29T00:43:58.771Z,1.67
2022-12-29T00:46:28.456Z,1.47
2022-12-29T00:49:14.515Z,1.40
2022-12-29T00:51:42.841Z,1.50
2022-12-29T00:54:11.433Z,1.33
2022-12-29T00:56:39.813Z,1.70
2022-12-29T00:59:11.162Z,1.40
2022-12-29T01:01:41.836Z,1.50
2022-12-29T01:04:10.590Z,1.40
2022-12-29T01:06:40.297Z,1.60
2022-12-29T01:09:28.545Z,1.40
2022-12-29T01:11:57.654Z,1.50
2022-12-29T01:14:26.494Z,1.50
2022-12-29T01:16:57.547Z,1.37
2022-12-29T01:19:26.728Z,1.30
2022-12-29T01:21:57.383Z,1.87
2022-12-29T01:24:27.080Z,1.50
2022-12-29T01:26:56.491Z,1.37
2022-12-29T01:29:36.560Z,1.40
2022-12-29T01:32:08.808Z,1.73
2022-12-29T01:34:37.376Z,1.40
2022-12-29T01:37:05.607Z,1.77
2022-12-29T01:39:33.955Z,1.60
2022-12-29T01:42:02.937Z,1.57
2022-12-29T01:44:55.598Z,1.67
2022-12-29T01:47:40.468Z,1.33
2022-12-29T01:50:12.604Z,1.70
2022-12-29T01:52:44.733Z,1.40
2022-12-29T01:55:14.075Z,1.60
2022-12-29T01:57:45.994Z,1.80
2022-12-29T02:00:16.772Z,1.63
2022-12-29T02:02:53.020Z,1.67
2022-12-29T02:05:29.210Z,1.57
2022-12-29T02:07:57.640Z,1.70
2022-12-29T02:10:28.623Z,1.80
2022-12-29T02:12:58.683Z,1.50
2022-12-29T02:15:36.431Z,1.67
2022-12-29T02:18:24.079Z,1.50
2022-12-29T02:21:29.148Z,1.40
2022-12-29T02:24:17.535Z,1.50
2022-12-29T02:27:27.950Z,1.50
2022-12-29T02:30:17.435Z,2.10
2022-12-29T02:32:54.134Z,1.40
2022-12-29T02:35:32.981Z,1.47
2022-12-29T02:38:11.883Z,1.60
2022-12-29T02:40:45.364Z,1.57
2022-12-29T02:43:25.220Z,1.37
2022-12-29T02:45:59.049Z,1.40
2022-12-29T02:48:33.595Z,1.80
2022-12-29T02:51:04.915Z,1.50
2022-12-29T02:53:53.243Z,1.93
2022-12-29T02:56:22.012Z,1.20
2022-12-29T02:58:50.259Z,1.50
2022-12-29T03:01:31.827Z,1.70
2022-12-29T03:04:22.593Z,1.43
2022-12-29T03:06:58.208Z,1.43
2022-12-29T03:09:38.617Z,1.43
2022-12-29T03:12:17.093Z,1.23
2022-12-29T03:15:15.403Z,1.67
2022-12-29T03:17:52.276Z,1.40
2022-12-29T03:20:27.655Z,1.30
2022-12-29T03:23:02.654Z,1.20
2022-12-29T03:25:37.788Z,1.50
2022-12-29T03:28:14.101Z,1.37
2022-12-29T03:30:47.126Z,1.40
2022-12-29T03:33:22.622Z,1.07
2022-12-29T03:35:56.136Z,1.13
2022-12-29T03:38:30.781Z,1.10
2022-12-29T03:41:02.699Z,0.93
2022-12-29T03:43:33.004Z,1.47
2022-12-29T03:46:01.548Z,1.07
2022-12-29T03:48:30.174Z,1.40
2022-12-29T03:51:00.028Z,1.10
2022-12-29T03:53:29.961Z,1.40
2022-12-29T03:55:58.258Z,1.43
2022-12-29T03:58:26.798Z,1.37
2022-12-29T04:01:07.947Z,1.50
2022-12-29T04:03:39.348Z,1.40
2022-12-29T04:06:09.661Z,1.40
2022-12-29T04:08:44.953Z,1.20
2022-12-29T04:11:13.606Z,1.30
2022-12-29T04:13:44.263Z,1.40
2022-12-29T04:16:17.131Z,1.27
2022-12-29T04:18:45.447Z,1.50
2022-12-29T04:21:15.896Z,1.60
2022-12-29T04:23:46.736Z,1.50
2022-12-29T04:26:15.929Z,1.20
2022-12-29T04:28:56.809Z,1.20
2022-12-29T04:31:56.902Z,1.50
2022-12-29T04:34:25.468Z,1.33
2022-12-29T04:36:55.066Z,1.33
2022-12-29T04:39:23.698Z,1.40
2022-12-29T04:41:52.009Z,1.20
2022-12-29T04:44:22.734Z,1.70
2022-12-29T04:47:12.809Z,1.30
2022-12-29T04:49:59.224Z,1.40
2022-12-29T04:52:41.614Z,1.43
2022-12-29T04:55:12.241Z,1.53
2022-12-29T04:57:41.904Z,1.47
2022-12-29T05:00:13.505Z,1.27
2022-12-29T05:02:42.225Z,1.23
2022-12-29T05:05:11.259Z,1.73
2022-12-29T05:07:45.051Z,1.50
2022-12-29T05:10:13.516Z,1.43
2022-12-29T05:12:42.778Z,1.63
2022-12-29T05:15:12.273Z,1.63
2022-12-29T05:17:40.787Z,1.60
2022-12-29T05:20:11.352Z,1.60
2022-12-29T05:22:39.999Z,1.43
2022-12-29T05:25:11.423Z,1.60
2022-12-29T05:27:54.023Z,1.73
2022-12-29T05:30:40.759Z,1.53
2022-12-29T05:33:12.469Z,1.40
2022-12-29T05:35:41.562Z,1.30
2022-12-29T05:38:10.475Z,1.63
2022-12-29T05:40:41.374Z,1.87
2022-12-29T05:43:21.927Z,1.60
2022-12-29T05:46:22.335Z,1.67
2022-12-29T05:49:09.208Z,1.50
2022-12-29T05:51:54.405Z,1.40
2022-12-29T05:54:23.786Z,1.60
2022-12-29T05:56:54.079Z,1.53
2022-12-29T05:59:22.944Z,1.70
2022-12-29T06:01:54.379Z,1.60
2022-12-29T06:04:22.768Z,1.80
2022-12-29T06:06:51.011Z,1.50
2022-12-29T06:09:25.862Z,1.63
2022-12-29T06:11:56.986Z,1.60
2022-12-29T06:14:25.278Z,1.60
2022-12-29T06:16:53.620Z,1.73
2022-12-29T06:19:23.441Z,1.73
2022-12-29T06:21:52.453Z,1.40
2022-12-29T06:24:21.397Z,1.60
2022-12-29T06:26:49.932Z,1.63
2022-12-29T06:29:21.537Z,1.50
2022-12-29T06:31:50.492Z,1.50
2022-12-29T06:34:18.811Z,1.63
2022-12-29T06:36:47.846Z,1.60
2022-12-29T06:39:16.681Z,1.50
2022-12-29T06:41:54.650Z,1.70
2022-12-29T06:44:47.597Z,1.47
2022-12-29T06:47:15.820Z,1.90
2022-12-29T06:49:43.997Z,1.40
2022-12-29T06:52:13.225Z,1.60
2022-12-29T06:54:42.371Z,1.70
2022-12-29T06:57:10.643Z,1.70
2022-12-29T06:59:39.557Z,1.57
2022-12-29T07:02:09.630Z,1.40
2022-12-29T07:04:37.993Z,1.50
2022-12-29T07:07:06.396Z,1.93
2022-12-29T07:09:35.413Z,1.70
2022-12-29T07:12:03.784Z,2.00
2022-12-29T07:14:35.974Z,1.90
2022-12-29T07:17:08.753Z,1.57
2022-12-29T07:19:36.959Z,1.90
2022-12-29T07:22:05.300Z,1.87
2022-12-29T07:24:33.527Z,1.90
2022-12-29T07:27:02.541Z,1.83
2022-12-29T07:29:30.816Z,2.00
2022-12-29T07:31:59.225Z,1.67
2022-12-29T07:34:28.812Z,1.87
2022-12-29T07:36:57.155Z,1.67
2022-12-29T07:39:25.794Z,1.83
2022-12-29T07:41:56.169Z,1.80
2022-12-29T07:44:28.520Z,1.80
2022-12-29T07:47:18.281Z,1.83
2022-12-29T07:49:48.285Z,1.90
2022-12-29T07:52:16.573Z,1.63
2022-12-29T07:54:44.724Z,1.57
2022-12-29T07:57:13.489Z,2.03
2022-12-29T07:59:41.762Z,1.87
2022-12-29T08:02:12.456Z,2.00
2022-12-29T08:04:40.880Z,1.90
2022-12-29T08:07:10.586Z,2.20
2022-12-29T08:09:38.866Z,1.53
2022-12-29T08:12:07.562Z,1.77
2022-12-29T08:14:35.788Z,1.80
2022-12-29T08:17:04.357Z,1.73
2022-12-29T08:19:32.637Z,1.77
2022-12-29T08:22:00.917Z,1.60
2022-12-29T08:24:30.752Z,1.67
2022-12-29T08:27:01.979Z,1.90
2022-12-29T08:29:35.335Z,1.80
2022-12-29T08:32:03.844Z,1.60
2022-12-29T08:34:32.955Z,1.77
2022-12-29T08:37:01.433Z,2.00
2022-12-29T08:39:31.002Z,1.70
2022-12-29T08:41:59.595Z,1.63
2022-12-29T08:44:27.897Z,1.70
2022-12-29T08:46:56.481Z,1.47
2022-12-29T08:49:24.762Z,1.97
2022-12-29T08:51:53.279Z,1.73
2022-12-29T08:54:21.480Z,1.83
2022-12-29T08:56:51.140Z,1.60
2022-12-29T08:59:20.561Z,1.93
2022-12-29T09:01:50.525Z,1.80
2022-12-29T09:04:19.058Z,1.70
2022-12-29T09:06:47.865Z,1.63
2022-12-29T09:09:16.225Z,1.70
2022-12-29T09:11:44.594Z,1.87
2022-12-29T09:14:14.564Z,2.30
2022-12-29T09:17:00.586Z,1.50
2022-12-29T09:19:28.761Z,1.70
2022-12-29T09:21:57.320Z,1.70
2022-12-29T09:24:25.700Z,1.70
2022-12-29T09:26:54.049Z,1.60
2022-12-29T09:29:24.348Z,1.60
2022-12-29T09:31:52.845Z,1.67
2022-12-29T09:34:21.369Z,1.83
2022-12-29T09:36:49.658Z,1.80
2022-12-29T09:39:18.035Z,1.57
2022-12-29T09:41:51.786Z,1.57
2022-12-29T09:44:28.049Z,1.40
2022-12-29T09:46:58.819Z,1.80
2022-12-29T09:49:33.227Z,1.80
2022-12-29T09:52:07.033Z,1.77
2022-12-29T09:54:55.003Z,1.53
2022-12-29T09:57:30.850Z,1.67
2022-12-29T10:00:05.914Z,1.67
2022-12-29T10:02:42.894Z,1.60
2022-12-29T10:05:37.295Z,1.80
2022-12-29T10:08:28.798Z,1.87
2022-12-29T10:10:59.343Z,1.30
2022-12-29T10:13:35.871Z,1.63
2022-12-29T10:16:14.874Z,1.80
2022-12-29T10:19:13.945Z,1.80
2022-12-29T10:21:57.075Z,2.17
2022-12-29T10:24:27.664Z,1.70
2022-12-29T10:27:00.173Z,1.73
2022-12-29T10:29:34.909Z,1.90
2022-12-29T10:32:08.043Z,1.60
2022-12-29T10:34:39.741Z,1.97
2022-12-29T10:37:17.007Z,1.40
2022-12-29T10:39:49.333Z,1.60
2022-12-29T10:42:23.829Z,1.53
2022-12-29T10:44:53.235Z,1.63
2022-12-29T10:47:28.669Z,1.80
2022-12-29T10:49:59.408Z,1.80
2022-12-29T10:52:29.893Z,1.80
2022-12-29T10:55:01.987Z,1.80
2022-12-29T10:57:35.562Z,1.47
2022-12-29T11:00:11.008Z,1.80
2022-12-29T11:03:12.842Z,1.97
2022-12-29T11:05:47.861Z,1.70
2022-12-29T11:08:19.525Z,1.80
2022-12-29T11:10:59.073Z,1.80
2022-12-29T11:13:34.895Z,2.13
2022-12-29T11:16:07.469Z,2.00
2022-12-29T11:18:39.610Z,2.00
2022-12-29T11:21:25.649Z,2.10
2022-12-29T11:23:59.376Z,1.87
2022-12-29T11:26:33.769Z,1.97
2022-12-29T11:29:25.999Z,1.70
2022-12-29T11:31:56.472Z,2.00
2022-12-29T11:34:28.287Z,1.83
2022-12-29T11:37:02.865Z,1.73
2022-12-29T11:39:43.103Z,1.87
2022-12-29T11:42:18.427Z,2.03
2022-12-29T11:44:49.209Z,2.07
2022-12-29T11:47:28.846Z,1.80
2022-12-29T11:50:02.013Z,1.73
2022-12-29T11:52:36.167Z,1.87
2022-12-29T11:55:07.649Z,1.80
2022-12-29T11:57:37.806Z,1.70
2022-12-29T12:00:18.190Z,1.57
2022-12-29T12:02:57.816Z,1.87
2022-12-29T12:05:35.954Z,1.70
2022-12-29T12:08:14.987Z,1.60
2022-12-29T12:10:52.741Z,2.17
2022-12-29T12:13:26.081Z,1.60
2022-12-29T12:15:59.609Z,1.50
2022-12-29T12:18:49.548Z,1.40
2022-12-29T12:21:31.422Z,1.73
2022-12-29T12:24:19.825Z,1.53
2022-12-29T12:27:01.944Z,1.33
2022-12-29T12:29:40.618Z,1.20
2022-12-29T12:32:16.262Z,1.43
2022-12-29T12:34:47.169Z,0.90
2022-12-29T12:37:35.651Z,1.17
2022-12-29T12:40:40.517Z,1.30
2022-12-29T12:43:25.167Z,1.10
2022-12-29T12:46:04.028Z,1.43
2022-12-29T12:48:48.700Z,1.00
2022-12-29T12:51:24.688Z,1.00
2022-12-29T12:54:08.611Z,0.90
2022-12-29T12:56:49.675Z,1.10
2022-12-29T12:59:32.527Z,1.13
2022-12-29T13:02:11.763Z,1.13
2022-12-29T13:04:55.374Z,1.03
2022-12-29T13:07:35.085Z,1.00
2022-12-29T13:10:29.052Z,0.80
2022-12-29T13:13:07.420Z,1.10
2022-12-29T13:15:50.252Z,1.10
2022-12-29T13:18:28.895Z,1.20
2022-12-29T13:21:08.526Z,1.20
2022-12-29T13:23:56.663Z,1.20
2022-12-29T13:26:32.518Z,1.40
2022-12-29T13:29:11.325Z,1.47
2022-12-29T13:31:48.163Z,1.40
2022-12-29T13:34:26.519Z,1.30
2022-12-29T13:36:58.951Z,1.20
2022-12-29T13:39:32.661Z,1.30
2022-12-29T13:42:05.418Z,1.30
2022-12-29T13:44:37.276Z,1.30
2022-12-29T13:47:15.742Z,1.20
2022-12-29T13:49:45.364Z,1.30
2022-12-29T13:52:18.728Z,0.93
2022-12-29T13:54:59.504Z,1.07
2022-12-29T13:57:40.914Z,1.10
2022-12-29T14:00:17.260Z,1.00
2022-12-29T14:03:08.259Z,1.40
2022-12-29T14:05:37.407Z,1.13
2022-12-29T14:08:15.506Z,1.07
2022-12-29T14:10:50.993Z,0.97
2022-12-29T14:13:24.679Z,0.80
2022-12-29T14:15:59.012Z,0.90
2022-12-29T14:18:29.671Z,1.00
2022-12-29T14:21:00.558Z,0.90
2022-12-29T14:23:38.067Z,0.90
2022-12-29T14:26:16.584Z,1.10
2022-12-29T14:28:47.732Z,1.10
2022-12-29T14:31:43.555Z,1.00
2022-12-29T14:34:42.002Z,1.10
2022-12-29T14:37:27.380Z,1.13
2022-12-29T14:40:11.718Z,1.00
2022-12-29T14:42:42.947Z,0.90
2022-12-29T14:45:56.070Z,0.80
2022-12-29T14:48:39.711Z,0.87
2022-12-29T14:51:34.423Z,0.80
2022-12-29T14:54:23.157Z,0.90
2022-12-29T14:56:53.710Z,0.93
2022-12-29T14:59:24.770Z,1.10
2022-12-29T15:01:57.661Z,1.17
2022-12-29T15:04:32.243Z,0.80
2022-12-29T15:07:04.369Z,1.10
2022-12-29T15:09:39.680Z,0.90
2022-12-29T15:12:22.511Z,1.23
2022-12-29T15:14:53.931Z,0.90
2022-12-29T15:17:29.019Z,1.13
2022-12-29T15:19:59.071Z,0.90
2022-12-29T15:22:28.482Z,1.20
2022-12-29T15:29:36.424Z,1.00
2022-12-29T15:32:40.420Z,1.33
2022-12-29T15:40:16.582Z,1.10
2022-12-29T15:43:41.982Z,1.10
2022-12-29T16:00:05.587Z,1.20
2022-12-29T16:02:44.490Z,1.20
2022-12-29T16:05:22.865Z,1.30
2022-12-29T16:08:03.550Z,1.23
2022-12-29T16:10:38.175Z,1.07
2022-12-29T16:13:19.661Z,1.37
2022-12-29T16:15:51.389Z,1.10
2022-12-29T16:18:26.998Z,1.30
2022-12-29T16:40:34.733Z,1.27
2022-12-29T16:43:06.575Z,1.80
2022-12-29T16:46:20.616Z,1.20
2022-12-29T16:48:53.000Z,1.37
2022-12-29T16:51:49.117Z,1.50
2022-12-29T16:54:24.132Z,1.50
2022-12-29T17:06:17.353Z,1.77
2022-12-29T17:08:47.823Z,1.70
2022-12-29T17:11:41.781Z,1.77
2022-12-29T17:14:50.620Z,1.60
2022-12-29T17:17:24.533Z,1.97
2022-12-29T17:19:56.598Z,1.63
2022-12-29T17:22:27.205Z,1.97
2022-12-29T17:24:57.204Z,2.60
2022-12-29T17:27:39.033Z,1.90
2022-12-29T17:30:13.572Z,1.80
2022-12-29T17:32:45.781Z,1.60
2022-12-29T17:35:16.855Z,1.47
2022-12-29T17:37:45.866Z,1.50
2022-12-29T17:40:16.609Z,1.60
2022-12-29T17:42:47.461Z,1.67
2022-12-29T17:45:18.272Z,1.80
2022-12-29T17:47:48.586Z,3.03
2022-12-29T17:50:20.042Z,1.90
2022-12-29T17:52:55.297Z,1.70
2022-12-29T17:55:36.724Z,2.27
2022-12-29T17:58:23.272Z,1.63
2022-12-29T18:06:46.633Z,1.63
2022-12-29T18:09:34.106Z,1.73
2022-12-29T18:12:02.892Z,1.70
2022-12-29T18:14:31.367Z,1.90
2022-12-29T18:16:59.994Z,1.50
2022-12-29T18:19:35.657Z,1.70
2022-12-29T18:22:05.972Z,1.50
2022-12-29T18:24:38.403Z,1.70
2022-12-29T18:27:16.548Z,1.90
2022-12-29T18:29:45.737Z,1.80
2022-12-29T18:32:15.681Z,1.80
2022-12-29T18:34:50.486Z,1.80
2022-12-29T18:37:21.245Z,1.57
2022-12-29T18:39:49.740Z,1.67
2022-12-29T18:42:19.271Z,1.67
2022-12-29T18:44:48.243Z,1.97
2022-12-29T18:47:17.721Z,2.00
2022-12-29T18:49:47.668Z,1.70
2022-12-29T18:52:17.921Z,2.10
2022-12-29T18:54:49.526Z,2.00
2022-12-29T18:57:18.080Z,1.87
2022-12-29T18:59:46.499Z,1.47
2022-12-29T19:02:18.086Z,1.80
2022-12-29T19:04:50.107Z,1.90
2022-12-29T19:07:21.290Z,1.70
2022-12-29T19:09:50.869Z,1.90
2022-12-29T19:12:22.231Z,1.90
2022-12-29T19:14:53.358Z,1.97
2022-12-29T19:17:21.618Z,1.63
2022-12-29T19:19:49.907Z,1.70
2022-12-29T19:22:18.284Z,2.10
2022-12-29T19:24:46.573Z,2.20
2022-12-29T19:27:16.489Z,2.10
2022-12-29T19:29:44.743Z,1.90
2022-12-29T19:32:13.144Z,1.43
2022-12-29T19:34:43.036Z,1.80
2022-12-29T19:37:11.346Z,1.50
2022-12-29T19:39:39.700Z,1.80
2022-12-29T19:42:10.189Z,1.93
2022-12-29T19:50:21.471Z,1.57
2022-12-29T19:53:04.474Z,1.67
2022-12-29T19:55:33.559Z,1.60
2022-12-29T19:58:01.967Z,1.73
2022-12-29T20:00:31.019Z,1.53
2022-12-29T20:02:59.500Z,1.60
2022-12-29T20:05:29.274Z,1.60
2022-12-29T20:07:57.622Z,1.40
2022-12-29T20:10:26.059Z,1.80
2022-12-29T20:12:54.419Z,1.20
2022-12-29T20:15:22.769Z,1.80
2022-12-29T20:20:41.403Z,1.20
2022-12-29T20:23:09.860Z,1.30
2022-12-29T20:25:46.606Z,2.00
2022-12-29T20:28:16.869Z,1.20
2022-12-29T20:30:45.699Z,1.63
2022-12-29T20:33:14.090Z,1.80
2022-12-29T20:35:43.792Z,1.33
2022-12-29T20:38:12.075Z,1.47
2022-12-29T20:41:32.430Z,1.20
2022-12-29T20:45:14.952Z,1.53
2022-12-29T20:48:16.508Z,1.30
2022-12-29T20:50:52.673Z,1.60
2022-12-29T20:53:34.896Z,1.50
2022-12-29T20:56:26.378Z,1.00
2022-12-29T21:01:53.894Z,1.23
2022-12-29T21:09:28.820Z,1.30
2022-12-29T21:12:14.268Z,1.00
2022-12-29T21:15:03.859Z,1.27
2022-12-29T21:17:52.856Z,1.37
2022-12-29T21:25:08.845Z,1.10
2022-12-29T21:27:59.377Z,1.23
2022-12-29T21:30:30.775Z,1.30
2022-12-29T21:33:09.481Z,1.20
2022-12-29T21:36:06.387Z,0.93
2022-12-29T21:38:48.435Z,1.10
2022-12-29T21:41:37.253Z,1.23
2022-12-29T21:49:01.001Z,0.90
2022-12-29T21:52:01.483Z,1.20
2022-12-29T21:55:21.393Z,1.00
2022-12-29T21:58:22.703Z,1.20
2022-12-29T22:01:27.984Z,0.90
2022-12-29T22:04:35.737Z,1.40
2022-12-29T22:07:28.337Z,1.10
2022-12-29T22:10:25.915Z,1.07
2022-12-29T22:13:06.928Z,1.30
2022-12-29T22:16:09.280Z,1.10
2022-12-29T22:18:46.964Z,1.23
2022-12-29T22:21:53.374Z,1.13
2022-12-29T22:24:55.157Z,1.13
2022-12-29T22:28:09.064Z,1.27
2022-12-29T22:30:55.729Z,1.17
2022-12-29T22:33:59.067Z,1.10
2022-12-29T22:46:43.148Z,1.10
2022-12-29T22:49:27.857Z,1.00
2022-12-29T22:55:44.841Z,1.07
2022-12-29T22:58:30.086Z,1.10
2022-12-29T23:01:13.262Z,1.20
2022-12-29T23:04:58.768Z,1.00
2022-12-29T23:07:26.999Z,1.17
2022-12-29T23:10:10.521Z,1.27
2022-12-29T23:12:53.335Z,1.20
2022-12-29T23:15:42.249Z,1.00
2022-12-29T23:18:13.659Z,1.10
2022-12-29T23:20:49.201Z,1.03
2022-12-29T23:23:46.226Z,1.30
2022-12-29T23:26:51.376Z,1.43
2022-12-29T23:29:55.271Z,1.30
2022-12-29T23:32:41.794Z,1.30
2022-12-29T23:35:44.204Z,1.40
2022-12-29T23:38:50.101Z,1.40
2022-12-29T23:45:32.681Z,1.43
2022-12-29T23:48:01.126Z,1.17
2022-12-29T23:50:37.475Z,1.10
2022-12-29T23:53:42.866Z,1.30
2022-12-29T23:56:44.677Z,1.40
2022-12-29T23:59:21.512Z,1.20
